Time;durP1;ratioP1;P1;durP2;ratioP2;P2;SDS_P1;SDS_P2;PMS_P1;PMS_P2;Temp;Humidity;BMP_temperature;BMP_pressure;BME280_temperature;BME280_humidity;BME280_pressure;Samples;Min_cycle;Max_cycle;Signal;HPM_P1;HPM_P2
2020/12/06 00:02:14;;;;;;;22.40;16.63;;;6.40;99.90;;;;;;5031240;28;20616;-59
2020/12/06 00:04:42;;;;;;;20.77;16.03;;;6.30;99.90;;;;;;5030911;28;20233;-58
2020/12/06 00:07:08;;;;;;;20.57;15.73;;;6.30;99.90;;;;;;5031352;28;20233;-62
2020/12/06 00:09:34;;;;;;;20.47;15.67;;;6.40;99.90;;;;;;5030701;28;20701;-59
2020/12/06 00:12:00;;;;;;;20.10;15.47;;;6.40;99.90;;;;;;5030975;28;20733;-58
2020/12/06 00:14:26;;;;;;;20.93;16.13;;;6.50;99.90;;;;;;5031090;28;20210;-58
2020/12/06 00:16:53;;;;;;;23.83;17.00;;;6.60;99.90;;;;;;5030807;28;20230;-58
2020/12/06 00:19:19;;;;;;;20.57;16.53;;;6.60;99.90;;;;;;5030690;28;20203;-58
2020/12/06 00:21:46;;;;;;;21.63;16.40;;;6.60;99.90;;;;;;5030534;28;20252;-58
2020/12/06 00:24:13;;;;;;;20.60;16.63;;;6.70;99.90;;;;;;5030501;28;20210;-59
2020/12/06 00:26:39;;;;;;;23.70;16.67;;;6.60;99.90;;;;;;5030760;28;20280;-58
2020/12/06 00:29:05;;;;;;;19.70;15.33;;;6.60;99.90;;;;;;5030823;28;20206;-58
2020/12/06 00:31:32;;;;;;;20.50;15.87;;;6.50;99.90;;;;;;5030883;28;20206;-58
2020/12/06 00:33:58;;;;;;;19.47;15.67;;;6.50;99.90;;;;;;5030182;28;20303;-58
2020/12/06 00:36:24;;;;;;;19.30;16.13;;;6.40;99.90;;;;;;5030875;28;20214;-59
2020/12/06 00:38:51;;;;;;;20.77;16.47;;;6.50;99.90;;;;;;5030346;28;20285;-60
2020/12/06 00:41:18;;;;;;;21.43;16.20;;;6.50;99.90;;;;;;5030575;28;20206;-58
2020/12/06 00:43:44;;;;;;;20.10;15.83;;;6.50;99.90;;;;;;5030319;28;20210;-58
2020/12/06 00:46:11;;;;;;;22.90;16.47;;;6.60;99.90;;;;;;5030160;28;20709;-58
2020/12/06 00:48:37;;;;;;;21.43;15.93;;;6.60;99.90;;;;;;5030298;28;20206;-59
2020/12/06 00:51:04;;;;;;;22.30;17.07;;;6.60;99.90;;;;;;5030502;28;20214;-58
2020/12/06 00:53:30;;;;;;;19.70;15.17;;;6.70;99.90;;;;;;5032538;28;20734;-59
2020/12/06 00:55:57;;;;;;;21.13;16.27;;;6.70;99.90;;;;;;5034254;28;20206;-58
2020/12/06 00:58:23;;;;;;;18.73;15.00;;;6.70;99.90;;;;;;5033814;28;20726;-59
2020/12/06 01:00:49;;;;;;;21.03;15.67;;;6.70;99.90;;;;;;5033936;28;20612;-58
2020/12/06 01:03:16;;;;;;;20.70;15.13;;;6.70;99.90;;;;;;5033874;28;20306;-58
2020/12/06 01:05:42;;;;;;;17.70;14.60;;;6.60;99.90;;;;;;5033779;28;20597;-59
2020/12/06 01:08:08;;;;;;;17.70;13.93;;;6.40;99.90;;;;;;5033682;28;20234;-59
2020/12/06 01:10:35;;;;;;;19.77;15.37;;;6.20;99.90;;;;;;5033900;28;20599;-58
2020/12/06 01:13:02;;;;;;;20.60;15.40;;;6.10;99.90;;;;;;5033844;28;20226;-59
2020/12/06 01:15:28;;;;;;;20.10;15.03;;;6.10;99.90;;;;;;5033552;28;20633;-58
2020/12/06 01:17:54;;;;;;;19.60;15.10;;;6.10;99.90;;;;;;5033870;28;20241;-60
2020/12/06 01:20:20;;;;;;;18.10;14.83;;;6.20;99.90;;;;;;5034012;28;20206;-61
2020/12/06 01:22:47;;;;;;;19.23;14.80;;;6.10;99.90;;;;;;5033880;28;20586;-59
2020/12/06 01:25:13;;;;;;;18.50;14.63;;;5.90;99.90;;;;;;5033749;28;20269;-60
2020/12/06 01:27:39;;;;;;;20.17;15.30;;;5.80;99.90;;;;;;5033464;28;20283;-58
2020/12/06 01:30:07;;;;;;;21.87;16.23;;;5.70;99.90;;;;;;5033396;28;20260;-59
2020/12/06 01:32:33;;;;;;;20.40;15.87;;;5.60;99.90;;;;;;5033394;28;20259;-60
2020/12/06 01:35:01;;;;;;;20.50;15.43;;;5.60;99.90;;;;;;5033351;28;20213;-58
2020/12/06 01:37:27;;;;;;;18.87;15.47;;;5.40;99.90;;;;;;5033724;28;20507;-57
2020/12/06 01:39:53;;;;;;;19.60;15.30;;;5.40;99.90;;;;;;5033774;28;20202;-58
2020/12/06 01:42:19;;;;;;;20.20;15.57;;;5.40;99.90;;;;;;5033750;28;20279;-58
2020/12/06 01:44:45;;;;;;;20.17;15.53;;;5.40;99.90;;;;;;5033202;28;20670;-61
2020/12/06 01:47:13;;;;;;;21.90;16.03;;;5.40;99.90;;;;;;5033347;28;20232;-60
2020/12/06 01:49:40;;;;;;;21.53;15.53;;;5.40;99.90;;;;;;5033124;28;20214;-58
2020/12/06 01:52:08;;;;;;;21.30;16.53;;;5.40;99.90;;;;;;5033192;28;20230;-59
2020/12/06 01:54:34;;;;;;;21.70;16.03;;;5.40;99.90;;;;;;5032708;28;20214;-60
2020/12/06 01:57:01;;;;;;;20.27;15.70;;;5.50;99.90;;;;;;5032878;28;20241;-59
2020/12/06 01:59:28;;;;;;;21.43;16.07;;;5.50;99.90;;;;;;5033101;28;20195;-61
2020/12/06 02:01:58;;;;;;;22.27;16.10;;;5.50;99.90;;;;;;5033222;28;20214;-59
2020/12/06 02:04:27;;;;;;;19.70;15.80;;;5.60;99.90;;;;;;5032498;28;20214;-60
2020/12/06 02:06:54;;;;;;;21.57;15.47;;;5.60;99.90;;;;;;5033498;28;20226;-59
2020/12/06 02:09:21;;;;;;;21.07;15.83;;;5.60;99.90;;;;;;5032853;28;20209;-60
2020/12/06 02:11:47;;;;;;;19.27;14.23;;;5.60;99.90;;;;;;5033327;28;20664;-59
2020/12/06 02:14:14;;;;;;;22.73;15.73;;;5.60;99.90;;;;;;5032439;28;20249;-58
2020/12/06 02:16:41;;;;;;;19.57;14.77;;;5.50;99.90;;;;;;5032499;28;20574;-58
2020/12/06 02:19:08;;;;;;;20.70;15.90;;;5.60;99.90;;;;;;5032679;28;20206;-57
2020/12/06 02:21:38;;;;;;;20.00;15.40;;;5.60;99.90;;;;;;5032581;28;20210;-59
2020/12/06 02:24:05;;;;;;;21.40;16.33;;;5.70;99.90;;;;;;5032352;28;20584;-59
2020/12/06 02:26:38;;;;;;;19.83;15.63;;;5.70;99.90;;;;;;5032113;28;20244;-59
2020/12/06 02:29:04;;;;;;;23.27;16.13;;;5.80;99.90;;;;;;5032420;28;20221;-58
2020/12/06 02:31:30;;;;;;;20.00;15.67;;;5.80;99.90;;;;;;5032389;28;20714;-58
2020/12/06 02:33:56;;;;;;;22.93;16.67;;;5.80;99.90;;;;;;5031880;28;20230;-59
2020/12/06 02:36:22;;;;;;;22.70;16.00;;;5.80;99.90;;;;;;5032316;28;20214;-59
2020/12/06 02:38:50;;;;;;;26.67;17.23;;;5.80;99.90;;;;;;5032357;28;20232;-58
2020/12/06 02:41:16;;;;;;;26.33;16.30;;;5.90;99.90;;;;;;5032210;28;20206;-59
2020/12/06 02:43:42;;;;;;;27.13;15.87;;;5.90;99.90;;;;;;5032027;28;20210;-59
2020/12/06 02:46:08;;;;;;;41.87;17.47;;;5.90;99.90;;;;;;5032280;28;20206;-59
2020/12/06 02:48:34;;;;;;;38.77;17.47;;;5.80;99.90;;;;;;5031618;28;20234;-59
2020/12/06 02:51:00;;;;;;;41.33;16.73;;;5.90;99.90;;;;;;5032267;28;20206;-58
2020/12/06 02:53:27;;;;;;;51.10;17.23;;;5.90;99.90;;;;;;5031376;28;20604;-60
2020/12/06 02:55:54;;;;;;;80.60;19.53;;;6.00;99.90;;;;;;5031893;28;20206;-60
2020/12/06 02:58:20;;;;;;;61.03;18.93;;;6.00;99.90;;;;;;5031693;28;20234;-60
2020/12/06 03:00:46;;;;;;;65.63;18.37;;;6.00;99.90;;;;;;5031719;28;20237;-60
2020/12/06 03:03:13;;;;;;;52.03;18.57;;;6.00;99.90;;;;;;5031893;28;20206;-61
2020/12/06 03:05:39;;;;;;;69.23;19.67;;;6.00;99.90;;;;;;5031164;28;20206;-60
2020/12/06 03:08:05;;;;;;;67.80;18.67;;;6.10;99.90;;;;;;5031057;28;20226;-60
2020/12/06 03:10:31;;;;;;;79.87;20.40;;;6.10;99.90;;;;;;5031550;28;20256;-60
2020/12/06 03:12:58;;;;;;;91.93;21.23;;;6.10;99.90;;;;;;5031715;28;20287;-59
2020/12/06 03:15:25;;;;;;;73.20;20.50;;;6.10;99.90;;;;;;5030778;28;20210;-59
2020/12/06 03:17:51;;;;;;;50.07;19.17;;;6.10;99.90;;;;;;5031171;28;20237;-59
2020/12/06 03:20:17;;;;;;;59.70;21.20;;;6.00;99.90;;;;;;5031221;28;20206;-59
2020/12/06 03:22:43;;;;;;;107.77;22.17;;;6.00;99.90;;;;;;5031259;28;20694;-59
2020/12/06 03:25:09;;;;;;;74.23;19.83;;;6.10;99.90;;;;;;5031058;28;20644;-60
2020/12/06 03:27:35;;;;;;;72.77;19.50;;;6.00;99.90;;;;;;5031325;28;20226;-59
2020/12/06 03:30:03;;;;;;;86.53;20.10;;;6.10;99.90;;;;;;5031054;28;20206;-59
2020/12/06 03:32:29;;;;;;;71.43;20.83;;;6.10;99.90;;;;;;5030988;28;20222;-59
2020/12/06 03:34:55;;;;;;;77.03;20.03;;;6.00;99.90;;;;;;5030819;28;20214;-59
2020/12/06 03:37:21;;;;;;;80.67;21.17;;;6.10;99.90;;;;;;5030734;28;20249;-59
2020/12/06 03:39:47;;;;;;;57.27;21.20;;;6.10;99.90;;;;;;5030759;28;20702;-60
2020/12/06 03:42:15;;;;;;;71.50;21.80;;;6.10;99.90;;;;;;5030945;28;20740;-60
2020/12/06 03:44:41;;;;;;;62.10;21.60;;;6.10;99.90;;;;;;5030689;28;20221;-59
2020/12/06 03:47:08;;;;;;;50.73;20.63;;;6.10;99.90;;;;;;5030669;28;20768;-60
2020/12/06 03:49:34;;;;;;;46.93;20.93;;;6.00;99.90;;;;;;5030567;28;20205;-60
2020/12/06 03:52:00;;;;;;;67.93;19.53;;;5.90;99.90;;;;;;5030726;28;20206;-60
2020/12/06 03:54:27;;;;;;;66.20;20.43;;;5.80;99.90;;;;;;5030274;28;20613;-59
2020/12/06 03:56:53;;;;;;;84.10;20.97;;;5.60;99.90;;;;;;5030523;28;20613;-60
2020/12/06 03:59:19;;;;;;;72.53;20.63;;;5.40;99.90;;;;;;5030527;28;20206;-59
2020/12/06 04:01:45;;;;;;;55.17;20.20;;;5.20;99.90;;;;;;5030710;28;20210;-58
2020/12/06 04:04:12;;;;;;;81.73;20.53;;;4.90;99.90;;;;;;5030379;28;20264;-59
2020/12/06 04:06:38;;;;;;;46.73;19.93;;;4.70;99.90;;;;;;5030476;28;20583;-59
2020/12/06 04:09:04;;;;;;;50.20;21.23;;;4.70;99.90;;;;;;5030315;28;20612;-60
2020/12/06 04:11:31;;;;;;;51.03;20.93;;;4.80;99.90;;;;;;5030711;28;20221;-59
2020/12/06 04:13:57;;;;;;;54.23;20.10;;;4.90;99.90;;;;;;5030371;28;20237;-59
2020/12/06 04:16:23;;;;;;;69.30;21.40;;;4.90;99.90;;;;;;5030415;28;20206;-58
2020/12/06 04:18:49;;;;;;;36.27;21.30;;;5.00;99.90;;;;;;5030240;28;20689;-58
2020/12/06 04:21:16;;;;;;;50.60;20.40;;;5.00;99.90;;;;;;5030461;28;20678;-59
2020/12/06 04:23:42;;;;;;;39.10;21.87;;;5.10;99.90;;;;;;5030499;28;20895;-60
2020/12/06 04:26:08;;;;;;;36.10;21.73;;;5.20;99.90;;;;;;5030999;28;20202;-59
2020/12/06 04:28:35;;;;;;;34.17;20.87;;;5.30;99.90;;;;;;5034236;28;20237;-59
2020/12/06 04:31:01;;;;;;;42.00;22.77;;;5.40;99.90;;;;;;5034393;28;20207;-60
2020/12/06 04:33:27;;;;;;;39.97;22.70;;;5.50;99.90;;;;;;5034355;28;20226;-60
2020/12/06 04:35:53;;;;;;;36.20;22.17;;;5.60;99.90;;;;;;5034496;28;20218;-60
2020/12/06 04:38:20;;;;;;;46.03;22.73;;;5.70;99.90;;;;;;5034714;28;20226;-59
2020/12/06 04:40:47;;;;;;;61.17;24.23;;;5.80;99.90;;;;;;5034579;28;20214;-60
2020/12/06 04:43:14;;;;;;;50.37;23.37;;;5.80;99.90;;;;;;5034433;28;20736;-60
2020/12/06 04:45:41;;;;;;;35.50;23.20;;;5.80;99.90;;;;;;5033939;28;20202;-59
2020/12/06 04:48:09;;;;;;;33.53;21.87;;;5.90;99.90;;;;;;5033724;28;20710;-59
2020/12/06 04:50:37;;;;;;;38.90;23.30;;;5.90;99.90;;;;;;5034353;28;20214;-61
2020/12/06 04:53:05;;;;;;;37.30;23.40;;;5.90;99.90;;;;;;5034071;28;20240;-61
2020/12/06 04:55:33;;;;;;;35.43;23.67;;;5.90;99.90;;;;;;5034150;28;20214;-59
2020/12/06 04:58:00;;;;;;;40.23;22.60;;;5.90;99.90;;;;;;5033533;28;20319;-60
2020/12/06 05:00:35;;;;;;;37.63;22.40;;;6.00;99.90;;;;;;5034051;28;20213;-60
2020/12/06 05:03:07;;;;;;;34.17;22.47;;;6.00;99.90;;;;;;5033960;28;20208;-60
2020/12/06 05:05:36;;;;;;;35.07;22.53;;;6.00;99.90;;;;;;5033779;28;20206;-60
2020/12/06 05:08:05;;;;;;;40.17;24.57;;;6.00;99.90;;;;;;5033245;28;20732;-59
2020/12/06 05:10:36;;;;;;;35.77;23.70;;;6.10;99.90;;;;;;5033682;28;20206;-60
2020/12/06 05:13:02;;;;;;;36.07;24.00;;;6.10;99.90;;;;;;5033565;28;20253;-59
2020/12/06 05:15:28;;;;;;;36.03;23.33;;;6.00;99.90;;;;;;5033632;28;20216;-60
2020/12/06 05:17:55;;;;;;;37.33;22.63;;;6.00;99.90;;;;;;5033402;28;20237;-59
2020/12/06 05:20:22;;;;;;;39.73;22.83;;;6.10;99.90;;;;;;5033675;28;20214;-59
2020/12/06 05:22:48;;;;;;;43.97;23.93;;;6.10;99.90;;;;;;5033697;28;20202;-59
2020/12/06 05:25:15;;;;;;;43.57;23.97;;;6.10;99.90;;;;;;5033277;28;20632;-59
2020/12/06 05:27:43;;;;;;;46.87;23.63;;;6.10;99.90;;;;;;5033242;28;20586;-59
2020/12/06 05:30:09;;;;;;;47.07;22.43;;;6.00;99.90;;;;;;5033360;28;20205;-59
2020/12/06 05:32:35;;;;;;;38.97;23.00;;;6.00;99.90;;;;;;5033393;28;20218;-60
2020/12/06 05:35:01;;;;;;;38.97;23.07;;;6.00;99.90;;;;;;5033269;28;20206;-60
2020/12/06 05:37:28;;;;;;;42.63;22.97;;;6.00;99.90;;;;;;5033033;28;20230;-61
2020/12/06 05:40:05;;;;;;;46.00;24.53;;;6.00;99.90;;;;;;5032321;28;20210;-60
2020/12/06 05:42:33;;;;;;;57.23;25.10;;;6.10;99.90;;;;;;5033030;28;20666;-60
2020/12/06 05:45:00;;;;;;;58.87;25.33;;;6.00;99.90;;;;;;5032701;28;20693;-60
2020/12/06 05:47:27;;;;;;;55.50;24.03;;;6.00;99.90;;;;;;5033046;28;20230;-59
2020/12/06 05:49:55;;;;;;;46.07;23.73;;;6.00;99.90;;;;;;5032903;28;20214;-59
2020/12/06 05:52:21;;;;;;;52.17;24.93;;;6.10;99.90;;;;;;5033118;28;20665;-60
2020/12/06 05:54:48;;;;;;;48.00;25.80;;;6.10;99.90;;;;;;5032880;28;20217;-60
2020/12/06 05:57:15;;;;;;;46.93;25.03;;;6.00;99.90;;;;;;5033056;28;20246;-59
2020/12/06 05:59:43;;;;;;;48.30;25.40;;;6.00;99.90;;;;;;5032708;28;20214;-60
2020/12/06 06:02:10;;;;;;;56.37;25.20;;;6.00;99.90;;;;;;5033056;28;20209;-60
2020/12/06 06:04:39;;;;;;;45.90;25.20;;;5.90;99.90;;;;;;5032564;28;20556;-59
2020/12/06 06:07:12;;;;;;;51.10;24.93;;;5.90;99.90;;;;;;5032815;28;20267;-59
2020/12/06 06:09:43;;;;;;;51.33;26.57;;;6.00;99.90;;;;;;5032499;28;20613;-60
2020/12/06 06:12:27;;;;;;;43.20;24.27;;;5.90;99.90;;;;;;5032900;28;20234;-60
2020/12/06 06:14:55;;;;;;;44.93;24.67;;;5.90;99.90;;;;;;5032186;28;20244;-59
2020/12/06 06:17:24;;;;;;;46.80;25.73;;;5.90;99.90;;;;;;5032248;28;20230;-59
2020/12/06 06:19:51;;;;;;;47.37;25.50;;;5.90;99.90;;;;;;5032062;28;20713;-60
2020/12/06 06:22:20;;;;;;;46.27;26.20;;;5.90;99.90;;;;;;5032885;28;20210;-61
2020/12/06 06:24:48;;;;;;;50.43;25.90;;;5.90;99.90;;;;;;5032203;28;20202;-60
2020/12/06 06:27:14;;;;;;;53.40;26.90;;;5.90;99.90;;;;;;5032716;28;20720;-60
2020/12/06 06:29:41;;;;;;;49.63;25.13;;;5.90;99.90;;;;;;5032872;28;20512;-60
2020/12/06 06:32:08;;;;;;;52.43;26.17;;;5.90;99.90;;;;;;5032395;28;20838;-60
2020/12/06 06:34:35;;;;;;;50.23;26.20;;;5.90;99.90;;;;;;5032015;28;20237;-60
2020/12/06 06:37:06;;;;;;;48.10;26.07;;;5.90;99.90;;;;;;5032348;28;20230;-60
2020/12/06 06:39:35;;;;;;;45.47;23.83;;;5.90;99.90;;;;;;5032076;28;20206;-60
2020/12/06 06:42:06;;;;;;;49.50;27.03;;;5.90;99.90;;;;;;5032084;28;20213;-60
2020/12/06 06:44:33;;;;;;;43.30;24.70;;;5.90;99.90;;;;;;5032217;28;20214;-60
2020/12/06 06:47:05;;;;;;;48.40;25.87;;;5.90;99.90;;;;;;5031832;28;20644;-60
2020/12/06 06:49:34;;;;;;;46.57;24.10;;;5.90;99.90;;;;;;5031326;28;20241;-60
2020/12/06 06:52:04;;;;;;;44.80;24.57;;;6.00;99.90;;;;;;5031555;28;20628;-60
2020/12/06 06:54:32;;;;;;;46.57;25.87;;;5.90;99.90;;;;;;5031517;28;20784;-59
2020/12/06 06:56:59;;;;;;;49.40;26.07;;;6.00;99.90;;;;;;5031525;28;20237;-60
2020/12/06 06:59:42;;;;;;;46.10;24.03;;;6.00;99.90;;;;;;5031324;28;20229;-59
2020/12/06 07:02:19;;;;;;;42.43;23.03;;;6.00;99.90;;;;;;5031570;28;20678;-60
2020/12/06 07:04:46;;;;;;;45.30;23.53;;;6.00;99.90;;;;;;5031724;28;20202;-59
2020/12/06 07:07:14;;;;;;;47.40;24.57;;;6.00;99.90;;;;;;5031733;28;20261;-61
2020/12/06 07:09:40;;;;;;;43.10;24.57;;;6.00;99.90;;;;;;5031221;28;20676;-59
2020/12/06 07:12:09;;;;;;;44.63;24.07;;;6.00;99.90;;;;;;5031368;28;20301;-60
2020/12/06 07:14:35;;;;;;;42.33;23.70;;;6.00;99.90;;;;;;5031351;28;20225;-60
2020/12/06 07:17:02;;;;;;;47.63;27.77;;;6.00;99.90;;;;;;5031023;28;20594;-60
2020/12/06 07:19:28;;;;;;;47.90;25.43;;;6.10;99.90;;;;;;5030870;28;20666;-61
2020/12/06 07:21:54;;;;;;;44.80;24.50;;;6.10;99.90;;;;;;5030871;28;20222;-60
2020/12/06 07:24:21;;;;;;;41.07;22.87;;;6.10;99.90;;;;;;5031059;28;20203;-60
2020/12/06 07:26:48;;;;;;;44.80;24.57;;;6.10;99.90;;;;;;5031639;28;20223;-60
2020/12/06 07:29:14;;;;;;;49.43;25.87;;;6.20;99.90;;;;;;5030992;28;20252;-60
2020/12/06 07:31:40;;;;;;;69.27;37.10;;;6.10;99.90;;;;;;5031300;28;20634;-59
2020/12/06 07:34:07;;;;;;;45.60;24.90;;;6.20;99.90;;;;;;5030894;28;20233;-60
2020/12/06 07:36:34;;;;;;;47.67;25.67;;;6.20;99.90;;;;;;5031179;28;20229;-59
2020/12/06 07:39:00;;;;;;;49.53;27.30;;;6.20;99.90;;;;;;5030803;28;20206;-61
2020/12/06 07:41:27;;;;;;;45.40;24.77;;;6.20;99.90;;;;;;5031327;28;20577;-60
2020/12/06 07:43:54;;;;;;;46.53;25.37;;;6.10;99.90;;;;;;5031017;28;20198;-60
2020/12/06 07:46:21;;;;;;;48.17;25.70;;;6.20;99.90;;;;;;5031039;28;20210;-59
2020/12/06 07:48:48;;;;;;;47.10;24.67;;;6.10;99.90;;;;;;5030633;28;20229;-60
2020/12/06 07:51:24;;;;;;;46.77;24.23;;;6.20;99.90;;;;;;5030773;28;20206;-59
2020/12/06 07:53:51;;;;;;;45.83;25.03;;;6.20;99.90;;;;;;5030264;28;20245;-58
2020/12/06 07:56:20;;;;;;;49.40;24.77;;;6.20;99.90;;;;;;5031142;28;20210;-57
2020/12/06 07:59:00;;;;;;;50.43;26.13;;;6.20;99.90;;;;;;5030168;28;20296;-58
2020/12/06 08:01:27;;;;;;;52.20;24.97;;;6.30;99.90;;;;;;5032865;28;20209;-62
2020/12/06 08:03:56;;;;;;;50.87;25.50;;;6.30;99.90;;;;;;5037381;28;20202;-59
2020/12/06 08:06:25;;;;;;;57.37;27.47;;;6.30;99.90;;;;;;5038237;28;20206;-60
2020/12/06 08:08:54;;;;;;;56.57;26.50;;;6.30;99.90;;;;;;5037703;28;20201;-60
2020/12/06 08:11:20;;;;;;;67.80;32.00;;;6.40;99.90;;;;;;5037454;28;20209;-59
2020/12/06 08:13:52;;;;;;;54.50;26.87;;;6.40;99.90;;;;;;5036733;28;20674;-60
2020/12/06 08:16:18;;;;;;;60.13;25.80;;;6.50;99.90;;;;;;5037481;28;20229;-57
2020/12/06 08:18:44;;;;;;;54.43;25.57;;;6.50;99.90;;;;;;5036851;28;20206;-59
2020/12/06 08:21:11;;;;;;;53.93;25.33;;;6.50;99.90;;;;;;5037222;28;20205;-59
2020/12/06 08:23:39;;;;;;;54.80;24.80;;;6.60;99.90;;;;;;5036739;28;20669;-58
2020/12/06 08:26:06;;;;;;;48.87;22.50;;;6.60;99.90;;;;;;5037492;28;20214;-58
2020/12/06 08:28:33;;;;;;;53.90;24.50;;;6.60;99.90;;;;;;5036687;28;20644;-58
2020/12/06 08:31:00;;;;;;;55.23;24.57;;;6.60;99.90;;;;;;5037128;28;20215;-59
2020/12/06 08:33:27;;;;;;;50.60;23.97;;;6.60;99.90;;;;;;5037154;28;20325;-58
2020/12/06 08:35:56;;;;;;;57.00;25.97;;;6.70;99.90;;;;;;5037061;28;20214;-58
2020/12/06 08:38:24;;;;;;;56.27;25.57;;;6.70;99.90;;;;;;5036823;28;20230;-59
2020/12/06 08:41:07;;;;;;;59.17;25.03;;;6.70;99.90;;;;;;5037036;28;20210;-58
2020/12/06 08:43:51;;;;;;;55.93;24.50;;;6.80;99.90;;;;;;5036733;28;20209;-58
2020/12/06 08:46:20;;;;;;;61.03;24.93;;;6.80;99.90;;;;;;5036982;28;20236;-58
2020/12/06 08:48:47;;;;;;;61.20;27.83;;;6.80;99.90;;;;;;5036715;28;20209;-58
2020/12/06 08:51:31;;;;;;;54.67;24.47;;;6.80;99.90;;;;;;5036805;28;20202;-59
2020/12/06 08:53:58;;;;;;;57.77;27.97;;;6.80;99.90;;;;;;5036422;28;20237;-57
2020/12/06 08:56:32;;;;;;;52.23;25.07;;;6.90;99.90;;;;;;5037351;28;20213;-61
2020/12/06 08:59:03;;;;;;;50.13;24.53;;;6.90;99.90;;;;;;5036757;28;20225;-58
2020/12/06 09:01:30;;;;;;;54.23;25.83;;;6.90;99.90;;;;;;5036907;28;20498;-58
2020/12/06 09:03:57;;;;;;;60.83;25.40;;;6.90;99.90;;;;;;5036415;28;20206;-58
2020/12/06 09:06:23;;;;;;;47.83;23.80;;;6.90;99.90;;;;;;5036725;28;20233;-58
2020/12/06 09:08:49;;;;;;;54.20;25.07;;;7.00;99.90;;;;;;5036287;28;20237;-58
2020/12/06 09:11:18;;;;;;;53.03;25.00;;;7.10;99.90;;;;;;5036574;28;20206;-59
2020/12/06 09:13:45;;;;;;;52.23;25.90;;;7.20;99.90;;;;;;5033194;28;20227;-59
2020/12/06 09:16:11;;;;;;;56.50;23.67;;;7.30;99.90;;;;;;5033519;28;20214;-59
2020/12/06 09:18:39;;;;;;;49.80;22.87;;;7.30;99.90;;;;;;5033149;28;20674;-59
2020/12/06 09:21:05;;;;;;;47.10;23.60;;;7.30;99.90;;;;;;5033267;28;20202;-60
2020/12/06 09:23:32;;;;;;;46.10;23.20;;;7.20;99.90;;;;;;5033392;28;20198;-59
2020/12/06 09:26:01;;;;;;;52.27;24.73;;;7.30;99.90;;;;;;5033435;28;20210;-59
2020/12/06 09:28:28;;;;;;;47.70;22.57;;;7.30;99.90;;;;;;5033082;28;20234;-59
2020/12/06 09:30:54;;;;;;;48.93;23.37;;;7.30;99.90;;;;;;5033148;28;20675;-60
2020/12/06 09:33:21;;;;;;;44.33;22.40;;;7.30;99.90;;;;;;5033157;28;20233;-60
2020/12/06 09:35:48;;;;;;;50.93;24.60;;;7.40;99.90;;;;;;5032746;28;20205;-61
2020/12/06 09:38:15;;;;;;;46.00;23.63;;;7.40;99.90;;;;;;5032790;28;20258;-61
2020/12/06 09:40:41;;;;;;;41.90;22.80;;;7.50;99.90;;;;;;5033215;28;20214;-60
2020/12/06 09:43:07;;;;;;;49.37;23.83;;;7.50;99.90;;;;;;5033303;28;20203;-58
2020/12/06 09:45:33;;;;;;;47.20;23.67;;;7.50;99.90;;;;;;5032519;28;20229;-58
2020/12/06 09:47:59;;;;;;;51.73;24.13;;;7.60;99.90;;;;;;5032636;28;20757;-59
2020/12/06 09:50:26;;;;;;;52.30;22.93;;;7.60;99.90;;;;;;5033145;28;20218;-60
2020/12/06 09:52:53;;;;;;;44.37;21.60;;;7.50;99.90;;;;;;5032817;28;20583;-59
2020/12/06 09:55:19;;;;;;;43.17;20.73;;;7.50;99.90;;;;;;5032315;28;20289;-59
2020/12/06 09:57:45;;;;;;;45.33;22.00;;;7.60;99.90;;;;;;5032274;28;20237;-59
2020/12/06 10:00:12;;;;;;;50.17;23.83;;;7.60;99.90;;;;;;5032740;28;20206;-59
2020/12/06 10:02:38;;;;;;;47.47;22.37;;;7.60;99.90;;;;;;5032706;28;20210;-59
2020/12/06 10:05:04;;;;;;;48.40;22.93;;;7.60;99.90;;;;;;5032347;28;20603;-59
2020/12/06 10:07:30;;;;;;;44.87;22.20;;;7.60;99.90;;;;;;5032511;28;20245;-59
2020/12/06 10:09:58;;;;;;;45.57;22.33;;;7.60;99.90;;;;;;5032318;28;20624;-59
2020/12/06 10:12:24;;;;;;;46.53;21.33;;;7.70;99.90;;;;;;5032422;28;20229;-59
2020/12/06 10:14:50;;;;;;;44.27;22.13;;;7.70;99.90;;;;;;5032078;28;20604;-61
2020/12/06 10:17:16;;;;;;;45.07;22.20;;;7.70;99.90;;;;;;5032315;28;20234;-61
2020/12/06 10:19:42;;;;;;;46.73;22.43;;;7.70;99.90;;;;;;5032492;28;20206;-63
2020/12/06 10:22:08;;;;;;;47.20;22.13;;;7.70;99.90;;;;;;5032576;28;20713;-63
2020/12/06 10:24:35;;;;;;;52.63;23.27;;;7.70;99.90;;;;;;5031984;28;20214;-63
2020/12/06 10:27:02;;;;;;;53.80;24.97;;;7.70;99.90;;;;;;5032614;28;20226;-63
2020/12/06 10:29:28;;;;;;;48.70;22.80;;;7.70;99.90;;;;;;5031943;28;20622;-62
2020/12/06 10:31:56;;;;;;;45.77;23.07;;;7.70;99.90;;;;;;5032016;28;20206;-62
2020/12/06 10:34:23;;;;;;;48.60;24.07;;;7.60;99.90;;;;;;5031895;28;20262;-62
2020/12/06 10:36:52;;;;;;;42.00;21.73;;;7.60;99.90;;;;;;5032237;28;20276;-62
2020/12/06 10:39:20;;;;;;;45.47;23.80;;;7.60;99.90;;;;;;5032071;28;20210;-63
2020/12/06 10:41:47;;;;;;;46.17;23.13;;;7.60;99.90;;;;;;5032121;28;20213;-63
2020/12/06 10:44:14;;;;;;;44.30;22.90;;;7.60;99.90;;;;;;5031764;28;20206;-63
2020/12/06 10:46:40;;;;;;;46.67;22.70;;;7.60;99.90;;;;;;5031816;28;20230;-63
2020/12/06 10:49:06;;;;;;;45.47;22.70;;;7.60;99.90;;;;;;5031878;28;20645;-63
2020/12/06 10:51:33;;;;;;;42.67;21.63;;;7.60;99.90;;;;;;5032115;28;20671;-63
2020/12/06 10:53:59;;;;;;;38.03;21.40;;;7.60;99.90;;;;;;5032063;28;20297;-63
2020/12/06 10:56:26;;;;;;;40.70;21.30;;;7.60;99.90;;;;;;5032245;28;20213;-63
2020/12/06 10:58:53;;;;;;;43.03;21.57;;;7.60;99.90;;;;;;5031540;28;20296;-63
2020/12/06 11:01:24;;;;;;;46.10;23.10;;;7.70;99.90;;;;;;5032038;28;20216;-63
2020/12/06 11:03:51;;;;;;;40.90;21.27;;;7.70;99.90;;;;;;5031856;28;20285;-63
2020/12/06 11:06:19;;;;;;;36.20;19.03;;;7.70;99.90;;;;;;5031782;28;20213;-63
2020/12/06 11:08:45;;;;;;;32.33;16.40;;;7.80;99.90;;;;;;5031410;28;20210;-65
2020/12/06 11:11:13;;;;;;;32.93;18.47;;;7.80;99.90;;;;;;5031352;28;20213;-62
2020/12/06 11:13:39;;;;;;;27.83;15.43;;;7.90;99.90;;;;;;5031182;28;20750;-61
2020/12/06 11:16:05;;;;;;;28.43;15.37;;;7.90;99.90;;;;;;5031125;28;20225;-60
2020/12/06 11:18:32;;;;;;;28.40;15.37;;;7.90;99.90;;;;;;5030909;28;20226;-60
2020/12/06 11:20:58;;;;;;;27.90;14.80;;;7.90;99.90;;;;;;5031150;28;20210;-60
2020/12/06 11:23:25;;;;;;;29.00;15.17;;;7.80;99.90;;;;;;5030779;28;20209;-60
2020/12/06 11:25:51;;;;;;;26.17;14.07;;;7.80;99.90;;;;;;5031432;28;20628;-61
2020/12/06 11:28:18;;;;;;;25.63;13.77;;;7.80;99.90;;;;;;5030617;28;20319;-61
2020/12/06 11:30:44;;;;;;;30.40;15.83;;;7.80;99.90;;;;;;5031409;28;20696;-60
2020/12/06 11:33:11;;;;;;;25.20;12.43;;;7.80;99.90;;;;;;5031444;28;20210;-60
2020/12/06 11:35:38;;;;;;;26.73;13.83;;;7.80;99.90;;;;;;5030729;28;20614;-61
2020/12/06 11:38:04;;;;;;;26.57;13.63;;;7.90;99.90;;;;;;5030700;28;20244;-60
2020/12/06 11:40:31;;;;;;;27.03;14.97;;;7.90;99.90;;;;;;5031073;28;20202;-60
2020/12/06 11:42:57;;;;;;;24.17;13.27;;;7.90;99.90;;;;;;5031021;28;20213;-60
2020/12/06 11:45:23;;;;;;;25.13;14.03;;;7.90;99.90;;;;;;5030853;28;20206;-60
2020/12/06 11:47:50;;;;;;;28.97;14.27;;;7.90;99.90;;;;;;5031107;28;20230;-60
2020/12/06 11:50:16;;;;;;;29.00;13.43;;;8.00;99.90;;;;;;5031694;28;20218;-60
2020/12/06 11:52:43;;;;;;;23.47;13.67;;;8.00;99.90;;;;;;5032128;28;20417;-61
2020/12/06 11:55:10;;;;;;;24.70;13.73;;;8.00;99.90;;;;;;5031662;28;20288;-61
2020/12/06 11:57:37;;;;;;;27.47;13.93;;;8.00;99.90;;;;;;5030243;28;20277;-61
2020/12/06 12:00:05;;;;;;;22.30;13.73;;;8.10;99.90;;;;;;5030841;28;20210;-60
2020/12/06 12:02:31;;;;;;;24.20;13.50;;;8.00;99.90;;;;;;5030835;28;20230;-60
2020/12/06 12:04:57;;;;;;;23.07;13.33;;;8.10;99.90;;;;;;5030940;28;20562;-60
2020/12/06 12:07:23;;;;;;;21.00;12.67;;;8.10;99.90;;;;;;5030966;28;20237;-60
2020/12/06 12:09:50;;;;;;;22.57;13.10;;;8.00;99.90;;;;;;5030932;28;20698;-60
2020/12/06 12:12:17;;;;;;;20.97;12.27;;;7.90;99.90;;;;;;5031705;28;20217;-61
2020/12/06 12:14:43;;;;;;;20.63;12.00;;;7.90;99.90;;;;;;5030602;28;20229;-60
2020/12/06 12:17:09;;;;;;;20.03;11.57;;;7.90;99.90;;;;;;5031718;28;20226;-60
2020/12/06 12:19:36;;;;;;;18.90;11.67;;;8.00;99.90;;;;;;5030726;28;20237;-60
2020/12/06 12:22:02;;;;;;;20.50;12.07;;;8.00;99.90;;;;;;5030609;28;20209;-60
2020/12/06 12:24:28;;;;;;;21.97;12.83;;;8.00;99.90;;;;;;5030533;28;20578;-60
2020/12/06 12:26:59;;;;;;;19.53;11.70;;;8.00;99.90;;;;;;5030971;28;20229;-60
2020/12/06 12:29:25;;;;;;;19.80;11.80;;;8.00;99.90;;;;;;5030684;28;20214;-60
2020/12/06 12:31:51;;;;;;;18.90;12.10;;;8.10;99.90;;;;;;5031002;28;20210;-61
2020/12/06 12:34:17;;;;;;;21.73;12.57;;;8.20;99.90;;;;;;5030384;28;20230;-60
2020/12/06 12:36:45;;;;;;;22.30;12.27;;;8.20;99.90;;;;;;5030659;28;20230;-60